Time;durP1;ratioP1;P1;durP2;ratioP2;P2;SDS_P1;SDS_P2;PMS_P1;PMS_P2;Temp;Humidity;BMP_temperature;BMP_pressure;BME280_temperature;BME280_humidity;BME280_pressure;Samples;Min_cycle;Max_cycle;Signal;HPM_P1;HPM_P2
2023/09/13 00:00:11;;;;;;;;;;;;;;;21.64;64.06;99310.94;10408104;28;1954;-68
2023/09/13 00:05:08;;;;;;;;;;;;;;;21.63;63.84;99317.16;10407864;28;948;-68
2023/09/13 00:10:04;;;;;;;;;;;;;;;21.64;63.89;99328.63;10408143;28;948;-68
2023/09/13 00:14:59;;;;;;;;;;;;;;;21.63;64.05;99330.44;10408440;28;925;-68
2023/09/13 00:19:56;;;;;;;;;;;;;;;21.63;63.93;99327.78;10408200;28;983;-68
2023/09/13 00:24:52;;;;;;;;;;;;;;;21.63;63.99;99332.22;10407454;28;1894;-68
2023/09/13 00:29:47;;;;;;;;;;;;;;;21.63;63.98;99333.06;10407513;28;1583;-68
2023/09/13 00:34:43;;;;;;;;;;;;;;;21.63;64.06;99338.38;10407872;28;837;-68
2023/09/13 00:39:39;;;;;;;;;;;;;;;21.62;64.05;99342.00;10406732;28;968;-68
2023/09/13 00:44:35;;;;;;;;;;;;;;;21.62;64.08;99342.00;10407786;28;1914;-68
2023/09/13 00:49:31;;;;;;;;;;;;;;;21.62;64.06;99342.00;10407108;28;900;-68
2023/09/13 00:54:27;;;;;;;;;;;;;;;21.62;63.87;99347.31;10407619;28;813;-68
2023/09/13 00:59:24;;;;;;;;;;;;;;;21.63;64.06;99345.50;10408084;28;870;-68
2023/09/13 01:04:20;;;;;;;;;;;;;;;21.61;64.05;99340.31;10414911;28;1905;-68
2023/09/13 01:09:15;;;;;;;;;;;;;;;21.62;63.85;99355.25;10413819;28;853;-68
2023/09/13 01:14:11;;;;;;;;;;;;;;;21.61;63.94;99347.38;10414236;28;936;-68
2023/09/13 01:19:07;;;;;;;;;;;;;;;21.61;63.72;99356.22;10414596;28;845;-68
2023/09/13 01:24:03;;;;;;;;;;;;;;;21.61;63.99;99353.56;10414550;28;1901;-68
2023/09/13 01:28:59;;;;;;;;;;;;;;;21.60;63.79;99354.50;10413654;28;1329;-68
2023/09/13 01:33:55;;;;;;;;;;;;;;;21.59;63.99;99358.13;10414369;28;814;-68
2023/09/13 01:38:51;;;;;;;;;;;;;;;21.60;63.96;99359.81;10413266;28;877;-68
2023/09/13 01:43:47;;;;;;;;;;;;;;;21.60;63.89;99359.81;10413454;28;1910;-68
2023/09/13 01:48:43;;;;;;;;;;;;;;;21.61;63.81;99365.97;10412841;28;811;-68
2023/09/13 01:53:39;;;;;;;;;;;;;;;21.57;63.68;99365.31;10412637;28;810;-68
2023/09/13 01:58:35;;;;;;;;;;;;;;;21.58;63.90;99366.16;10413313;28;858;-68
2023/09/13 02:03:30;;;;;;;;;;;;;;;21.57;63.95;99362.66;10411633;28;1960;-68
2023/09/13 02:08:26;;;;;;;;;;;;;;;21.56;63.76;99355.69;10412084;28;829;-68
2023/09/13 02:13:22;;;;;;;;;;;;;;;21.55;63.87;99361.91;10410893;28;765;-68
2023/09/13 02:18:18;;;;;;;;;;;;;;;21.55;63.74;99367.22;10411876;28;924;-68
2023/09/13 02:23:14;;;;;;;;;;;;;;;21.54;63.85;99370.81;10411349;28;1901;-68
2023/09/13 02:28:10;;;;;;;;;;;;;;;21.53;63.99;99379.72;10393158;28;1464;-68
2023/09/13 02:33:06;;;;;;;;;;;;;;;21.52;63.96;99383.31;10411094;28;843;-68
2023/09/13 02:38:02;;;;;;;;;;;;;;;21.51;63.80;99388.72;10410866;28;969;-68
2023/09/13 02:42:58;;;;;;;;;;;;;;;21.52;64.01;99378.03;10410678;28;1910;-68
2023/09/13 02:47:53;;;;;;;;;;;;;;;21.52;63.76;99383.31;10411071;28;755;-68
2023/09/13 02:52:49;;;;;;;;;;;;;;;21.52;63.80;99387.78;10411586;28;861;-68
2023/09/13 02:57:45;;;;;;;;;;;;;;;21.51;63.91;99394.03;10410646;28;941;-68
2023/09/13 03:02:41;;;;;;;;;;;;;;;21.51;63.96;99386.06;10409688;28;1957;-68
2023/09/13 03:07:37;;;;;;;;;;;;;;;21.50;63.73;99385.22;10410232;28;877;-68
2023/09/13 03:12:33;;;;;;;;;;;;;;;21.51;63.76;99380.75;10409566;28;880;-68
2023/09/13 03:17:29;;;;;;;;;;;;;;;21.51;63.88;99386.94;10409315;28;985;-68
2023/09/13 03:22:25;;;;;;;;;;;;;;;21.50;63.78;99382.56;10409005;28;1951;-68
2023/09/13 03:27:21;;;;;;;;;;;;;;;21.49;63.77;99388.00;10409361;28;989;-68
2023/09/13 03:32:17;;;;;;;;;;;;;;;21.45;64.00;99374.06;10409166;28;1385;-68
2023/09/13 03:37:13;;;;;;;;;;;;;;;21.45;63.77;99380.22;10409282;28;1038;-68
2023/09/13 03:42:08;;;;;;;;;;;;;;;21.46;64.05;99389.03;10408491;28;1898;-68
2023/09/13 03:47:04;;;;;;;;;;;;;;;21.45;64.00;99397.91;10407776;28;872;-68
2023/09/13 03:52:01;;;;;;;;;;;;;;;21.47;63.81;99405.78;10409119;28;806;-68
2023/09/13 03:56:57;;;;;;;;;;;;;;;21.45;63.84;99405.88;10407836;28;993;-68
2023/09/13 04:01:53;;;;;;;;;;;;;;;21.46;64.06;99404.94;10407879;28;1897;-68
2023/09/13 04:06:49;;;;;;;;;;;;;;;21.44;63.86;99396.22;10408543;28;887;-68
2023/09/13 04:11:45;;;;;;;;;;;;;;;21.44;64.05;99389.13;10407818;28;825;-68
2023/09/13 04:16:41;;;;;;;;;;;;;;;21.43;64.04;99386.56;10407105;28;870;-68
2023/09/13 04:21:37;;;;;;;;;;;;;;;21.41;63.97;99391.97;10407814;28;1932;-68
2023/09/13 04:26:33;;;;;;;;;;;;;;;21.42;63.85;99400.78;10408178;28;896;-68
2023/09/13 04:31:28;;;;;;;;;;;;;;;21.42;64.01;99392.81;10407817;28;1299;-68
2023/09/13 04:36:24;;;;;;;;;;;;;;;21.42;63.91;99387.53;10412073;28;887;-68
2023/09/13 04:41:20;;;;;;;;;;;;;;;21.40;63.88;99389.41;10415486;28;1906;-68
2023/09/13 04:46:16;;;;;;;;;;;;;;;21.39;64.11;99387.72;10415397;28;794;-68
2023/09/13 04:51:12;;;;;;;;;;;;;;;21.37;64.04;99386.94;10415282;28;896;-68
2023/09/13 04:56:08;;;;;;;;;;;;;;;21.38;63.97;99396.63;10415535;28;832;-68
2023/09/13 05:01:04;;;;;;;;;;;;;;;21.36;64.12;99404.63;10414985;28;1952;-67
2023/09/13 05:06:00;;;;;;;;;;;;;;;21.36;64.10;99401.16;10414433;28;841;-68
2023/09/13 05:10:56;;;;;;;;;;;;;;;21.37;63.93;99414.28;10415020;28;822;-69
2023/09/13 05:15:52;;;;;;;;;;;;;;;21.39;64.10;99414.22;10414837;28;797;-68
2023/09/13 05:20:47;;;;;;;;;;;;;;;21.33;64.04;99420.75;10413893;28;1910;-69
2023/09/13 05:25:44;;;;;;;;;;;;;;;21.33;64.19;99426.06;10414412;28;854;-68
2023/09/13 05:30:40;;;;;;;;;;;;;;;21.36;63.92;99441.75;10413028;28;1342;-68
2023/09/13 05:35:36;;;;;;;;;;;;;;;21.33;64.13;99441.97;10413406;28;863;-68
2023/09/13 05:40:32;;;;;;;;;;;;;;;21.33;64.02;99441.13;10413047;28;1968;-68
2023/09/13 05:45:28;;;;;;;;;;;;;;;21.32;64.08;99453.50;10412022;28;865;-68
2023/09/13 05:50:24;;;;;;;;;;;;;;;21.34;64.20;99456.91;10413068;28;900;-68
2023/09/13 05:55:19;;;;;;;;;;;;;;;21.30;64.04;99460.72;10412684;28;857;-68
2023/09/13 06:00:15;;;;;;;;;;;;;;;21.34;64.29;99461.38;10412482;28;923;-70
2023/09/13 06:05:11;;;;;;;;;;;;;;;21.35;64.15;99465.69;10412150;28;1955;-69
2023/09/13 06:10:07;;;;;;;;;;;;;;;21.37;64.16;99474.41;10412084;28;785;-67
2023/09/13 06:15:03;;;;;;;;;;;;;;;21.38;63.91;99487.63;10411959;28;771;-69
2023/09/13 06:19:59;;;;;;;;;;;;;;;21.37;64.15;99492.97;10412386;28;813;-70
2023/09/13 06:24:55;;;;;;;;;;;;;;;21.33;64.35;99497.63;10411559;28;1897;-70
2023/09/13 06:29:50;;;;;;;;;;;;;;;21.32;64.25;99497.72;10411161;28;1383;-70
2023/09/13 06:34:46;;;;;;;;;;;;;;;21.32;64.18;99498.56;10411619;28;885;-69
2023/09/13 06:39:42;;;;;;;;;;;;;;;21.33;64.40;99500.28;10412892;27;1109;-69
2023/09/13 06:44:40;;;;;;;;;;;;;;;21.31;64.51;99504.81;10452386;27;1976;-69
2023/09/13 06:49:36;;;;;;;;;;;;;;;21.31;64.24;99510.13;10452849;27;805;-70
2023/09/13 06:54:31;;;;;;;;;;;;;;;21.32;64.44;99513.63;10452086;27;892;-67
2023/09/13 06:59:27;;;;;;;;;;;;;;;21.32;64.46;99519.78;10451459;27;896;-68
2023/09/13 07:04:23;;;;;;;;;;;;;;;21.32;64.57;99529.53;10452101;27;1953;-68
2023/09/13 07:09:19;;;;;;;;;;;;;;;21.31;64.46;99528.69;10451668;27;883;-69
2023/09/13 07:14:15;;;;;;;;;;;;;;;21.33;64.36;99528.59;10450128;27;939;-72
2023/09/13 07:19:11;;;;;;;;;;;;;;;21.33;64.57;99541.84;10451080;27;849;-70
2023/09/13 07:24:07;;;;;;;;;;;;;;;21.30;64.55;99542.03;10450912;27;1893;-69
2023/09/13 07:29:03;;;;;;;;;;;;;;;21.33;64.39;99547.16;10450853;27;1440;-68
2023/09/13 07:34:02;;;;;;;;;;;;;;;21.32;64.45;99548.09;10430825;27;1096;-68
2023/09/13 07:39:00;;;;;;;;;;;;;;;21.29;64.61;99556.22;10408305;28;888;-68
2023/09/13 07:43:56;;;;;;;;;;;;;;;21.28;64.69;99568.63;10407908;28;1963;-68
2023/09/13 07:48:52;;;;;;;;;;;;;;;21.32;64.43;99577.25;10408306;28;867;-68
2023/09/13 07:53:47;;;;;;;;;;;;;;;21.30;64.52;99589.72;10407592;28;878;-68
2023/09/13 07:58:43;;;;;;;;;;;;;;;21.30;64.67;99598.56;10408631;28;940;-70
2023/09/13 08:03:39;;;;;;;;;;;;;;;21.30;64.53;99598.56;10407322;28;1902;-69
2023/09/13 08:08:35;;;;;;;;;;;;;;;21.30;64.59;99613.59;10403975;28;1021;-69
2023/09/13 08:13:31;;;;;;;;;;;;;;;21.31;64.48;99600.25;10407847;28;853;-69
2023/09/13 08:18:27;;;;;;;;;;;;;;;21.34;64.48;99608.03;10407233;28;825;-68
2023/09/13 08:23:24;;;;;;;;;;;;;;;21.36;64.37;99621.19;10407404;28;1957;-69
2023/09/13 08:28:19;;;;;;;;;;;;;;;21.39;64.36;99629.84;10406775;28;1122;-75
2023/09/13 08:33:16;;;;;;;;;;;;;;;21.40;64.35;99639.50;10407157;28;1207;-75
2023/09/13 08:38:12;;;;;;;;;;;;;;;21.37;64.29;99639.66;10406825;28;852;-76
2023/09/13 08:43:07;;;;;;;;;;;;;;;21.38;64.07;99648.50;10407566;28;1914;-75
2023/09/13 08:48:03;;;;;;;;;;;;;;;21.39;64.31;99659.00;10406035;28;1054;-67
2023/09/13 08:52:59;;;;;;;;;;;;;;;21.38;64.15;99665.28;10407114;28;1124;-67
2023/09/13 08:57:55;;;;;;;;;;;;;;;21.36;64.26;99668.94;10406307;28;957;-70
2023/09/13 09:02:51;;;;;;;;;;;;;;;21.37;64.26;99678.56;10407373;28;1898;-71
2023/09/13 09:07:47;;;;;;;;;;;;;;;21.35;64.41;99683.09;10406220;28;930;-71
2023/09/13 09:12:43;;;;;;;;;;;;;;;21.33;64.46;99682.38;10406647;28;968;-70
2023/09/13 09:17:39;;;;;;;;;;;;;;;21.32;64.45;99696.56;10406086;28;956;-72
2023/09/13 09:22:34;;;;;;;;;;;;;;;21.30;64.27;99686.06;10410733;28;1949;-72
2023/09/13 09:27:30;;;;;;;;;;;;;;;21.32;64.38;99683.28;10413130;28;1416;-71
2023/09/13 09:32:26;;;;;;;;;;;;;;;21.34;64.29;99676.13;10413544;28;882;-70
2023/09/13 09:37:22;;;;;;;;;;;;;;;21.37;64.25;99670.63;10414081;28;769;-70
2023/09/13 09:42:18;;;;;;;;;;;;;;;21.38;64.08;99683.84;10413750;28;1971;-70
2023/09/13 09:47:14;;;;;;;;;;;;;;;21.35;64.12;99686.63;10413583;28;886;-71
2023/09/13 09:52:10;;;;;;;;;;;;;;;21.35;64.40;99684.00;10412882;28;905;-70
2023/09/13 09:57:06;;;;;;;;;;;;;;;21.39;64.31;99687.34;10412112;28;936;-71
2023/09/13 10:02:03;;;;;;;;;;;;;;;21.37;64.20;99689.19;10413017;28;1969;-70
2023/09/13 10:07:00;;;;;;;;;;;;;;;21.37;64.30;99690.03;10412826;28;898;-71
2023/09/13 10:11:56;;;;;;;;;;;;;;;21.39;64.20;99687.34;10412084;28;905;-71
2023/09/13 10:16:52;;;;;;;;;;;;;;;21.40;64.07;99689.03;10411872;28;858;-70
2023/09/13 10:21:48;;;;;;;;;;;;;;;21.39;64.20;99700.59;10412219;28;1956;-72
2023/09/13 10:26:45;;;;;;;;;;;;;;;21.37;64.27;99697.97;10412107;28;948;-71
2023/09/13 10:31:41;;;;;;;;;;;;;;;21.37;64.23;99705.94;10411230;28;1265;-71
2023/09/13 10:36:36;;;;;;;;;;;;;;;21.35;64.40;99699.00;10411714;28;860;-70
2023/09/13 10:41:32;;;;;;;;;;;;;;;21.37;64.28;99694.47;10410736;28;2024;-70
2023/09/13 10:46:28;;;;;;;;;;;;;;;21.37;64.49;99705.94;10411367;28;916;-70
2023/09/13 10:51:24;;;;;;;;;;;;;;;21.36;64.22;99703.41;10411109;28;766;-69
2023/09/13 10:56:20;;;;;;;;;;;;;;;21.35;64.43;99714.94;10410916;28;888;-69
2023/09/13 11:01:16;;;;;;;;;;;;;;;21.35;64.34;99718.47;10410745;28;1901;-71
2023/09/13 11:06:12;;;;;;;;;;;;;;;21.36;64.17;99708.69;10410035;28;913;-71
2023/09/13 11:11:08;;;;;;;;;;;;;;;21.33;64.29;99724.78;10409739;28;893;-71
2023/09/13 11:16:04;;;;;;;;;;;;;;;21.30;64.52;99739.09;10408231;27;977;-71
2023/09/13 11:21:00;;;;;;;;;;;;;;;21.27;64.49;99771.03;10410340;27;1959;-70
2023/09/13 11:25:57;;;;;;;;;;;;;;;21.29;64.56;99789.53;10409084;28;960;-71
2023/09/13 11:30:53;;;;;;;;;;;;;;;21.30;64.40;99799.19;10409668;28;1102;-70
2023/09/13 11:35:49;;;;;;;;;;;;;;;21.32;64.38;99813.22;10408151;28;1155;-71
2023/09/13 11:40:47;;;;;;;;;;;;;;;21.28;64.43;99820.50;10409111;28;1913;-70
2023/09/13 11:45:42;;;;;;;;;;;;;;;21.26;64.52;99835.63;10408462;28;768;-70
2023/09/13 11:50:38;;;;;;;;;;;;;;;21.23;64.41;99859.66;10408361;28;879;-71
2023/09/13 11:55:34;;;;;;;;;;;;;;;21.22;64.60;99869.41;10408215;28;904;-70
2023/09/13 12:00:30;;;;;;;;;;;;;;;21.22;64.48;99874.72;10407395;28;1948;-70
2023/09/13 12:05:26;;;;;;;;;;;;;;;21.22;64.41;99877.38;10407966;28;861;-71
2023/09/13 12:10:22;;;;;;;;;;;;;;;21.21;64.45;99878.28;10407892;28;849;-71
2023/09/13 12:15:18;;;;;;;;;;;;;;;21.24;64.19;99878.13;10408404;28;847;-70
2023/09/13 12:20:14;;;;;;;;;;;;;;;21.28;64.84;99888.56;10407637;28;956;-73
2023/09/13 12:25:09;;;;;;;;;;;;;;;21.31;64.64;99883.94;10408177;28;1885;-75
2023/09/13 12:30:05;;;;;;;;;;;;;;;21.29;64.79;99890.28;10406865;28;1621;-75
2023/09/13 12:35:01;;;;;;;;;;;;;;;21.28;64.74;99893.88;10407331;28;888;-74
2023/09/13 12:39:57;;;;;;;;;;;;;;;21.27;64.58;99902.75;10407283;28;894;-75
2023/09/13 12:44:53;;;;;;;;;;;;;;;21.24;64.83;99906.44;10407869;28;1969;-75
2023/09/13 12:49:50;;;;;;;;;;;;;;;21.22;64.72;99918.91;10407751;28;778;-73
2023/09/13 12:54:46;;;;;;;;;;;;;;;21.23;64.67;99926.78;10407956;28;785;-75
2023/09/13 12:59:42;;;;;;;;;;;;;;;21.22;64.64;99934.81;10414320;28;774;-75
2023/09/13 13:04:37;;;;;;;;;;;;;;;21.19;64.67;99938.47;10414829;28;1897;-72
2023/09/13 13:09:33;;;;;;;;;;;;;;;21.22;64.50;99940.09;10414567;28;806;-70
2023/09/13 13:14:29;;;;;;;;;;;;;;;21.13;64.49;99946.78;10414374;28;861;-75
2023/09/13 13:19:25;;;;;;;;;;;;;;;20.95;63.78;99955.72;10414794;28;885;-71
2023/09/13 13:24:21;;;;;;;;;;;;;;;20.64;63.08;99957.31;10413885;28;1944;-70
2023/09/13 13:29:17;;;;;;;;;;;;;;;20.53;63.94;99968.44;10413886;28;1252;-72
2023/09/13 13:34:13;;;;;;;;;;;;;;;20.79;63.54;99966.25;10414163;28;786;-72
2023/09/13 13:39:15;;;;;;;;;;;;;;;20.92;63.34;99967.34;10413370;28;873;-72
2023/09/13 13:44:11;;;;;;;;;;;;;;;21.01;63.30;99964.22;10414455;28;1913;-72
2023/09/13 13:49:07;;;;;;;;;;;;;;;21.03;63.47;99974.72;10413659;28;948;-72
2023/09/13 13:54:04;;;;;;;;;;;;;;;20.99;63.57;99970.53;10412872;28;879;-71
2023/09/13 13:59:00;;;;;;;;;;;;;;;20.99;63.58;99987.28;10412647;28;913;-71
2023/09/13 14:03:56;;;;;;;;;;;;;;;21.00;63.60;99990.78;10413030;28;1894;-71
2023/09/13 14:08:52;;;;;;;;;;;;;;;20.99;63.64;99989.94;10411077;28;868;-71
2023/09/13 14:13:48;;;;;;;;;;;;;;;20.99;63.82;100003.19;10411475;28;889;-71
2023/09/13 14:18:43;;;;;;;;;;;;;;;20.98;63.94;100001.44;10411830;28;916;-71
2023/09/13 14:23:39;;;;;;;;;;;;;;;20.97;64.00;100012.16;10411647;28;1906;-71
2023/09/13 14:28:35;;;;;;;;;;;;;;;20.98;63.85;100020.00;10412168;28;1167;-72
2023/09/13 14:33:37;;;;;;;;;;;;;;;20.96;64.04;100032.50;10411318;28;925;-72
2023/09/13 14:38:33;;;;;;;;;;;;;;;20.96;64.14;100023.69;10412054;28;821;-71
2023/09/13 14:43:29;;;;;;;;;;;;;;;20.95;64.19;100035.22;10410792;28;1913;-72
2023/09/13 14:48:24;;;;;;;;;;;;;;;20.95;64.19;100037.84;10411351;28;873;-72
2023/09/13 14:53:21;;;;;;;;;;;;;;;20.94;64.03;100036.16;10409849;28;888;-72
2023/09/13 14:58:17;;;;;;;;;;;;;;;20.94;64.27;100038.81;10430538;27;1206;-72
2023/09/13 15:03:13;;;;;;;;;;;;;;;20.93;64.07;100047.69;10452002;27;1960;-72
2023/09/13 15:08:08;;;;;;;;;;;;;;;20.93;64.09;100045.91;10451153;27;908;-72
2023/09/13 15:13:04;;;;;;;;;;;;;;;20.93;64.35;100059.16;10450938;27;909;-72
2023/09/13 15:18:00;;;;;;;;;;;;;;;20.93;64.16;100061.81;10450994;27;781;-72
2023/09/13 15:22:56;;;;;;;;;;;;;;;20.92;64.35;100062.72;10451047;27;1889;-72
2023/09/13 15:27:52;;;;;;;;;;;;;;;20.92;64.35;100068.03;10450748;27;1247;-72
2023/09/13 15:32:48;;;;;;;;;;;;;;;20.93;64.28;100066.22;10450911;27;821;-72
2023/09/13 15:37:44;;;;;;;;;;;;;;;20.93;64.16;100069.75;10450108;27;911;-72
2023/09/13 15:42:40;;;;;;;;;;;;;;;20.96;64.01;100072.25;10451215;27;1975;-72
2023/09/13 15:47:37;;;;;;;;;;;;;;;20.96;64.17;100071.41;10450505;27;890;-71
2023/09/13 15:52:33;;;;;;;;;;;;;;;20.93;64.29;100063.56;10450318;27;797;-72
2023/09/13 15:57:28;;;;;;;;;;;;;;;20.93;64.15;100064.47;10450056;27;888;-72
2023/09/13 16:02:24;;;;;;;;;;;;;;;20.93;64.17;100069.75;10450298;27;1973;-72
2023/09/13 16:07:21;;;;;;;;;;;;;;;20.93;64.36;100068.88;10450448;27;829;-71
2023/09/13 16:12:17;;;;;;;;;;;;;;;20.93;64.20;100079.47;10450284;28;798;-71
2023/09/13 16:17:13;;;;;;;;;;;;;;;20.92;64.25;100070.66;10449624;28;801;-72
2023/09/13 16:22:09;;;;;;;;;;;;;;;20.90;64.22;100074.34;10449481;28;1893;-72
2023/09/13 16:27:05;;;;;;;;;;;;;;;20.89;64.26;100081.44;10450030;28;909;-72
2023/09/13 16:32:00;;;;;;;;;;;;;;;20.88;64.27;100076.19;10454003;27;1150;-72
2023/09/13 16:36:56;;;;;;;;;;;;;;;20.88;64.33;100089.44;10457801;27;783;-72
2023/09/13 16:41:55;;;;;;;;;;;;;;;20.87;64.38;100085.09;10457526;27;1909;-71
2023/09/13 16:46:51;;;;;;;;;;;;;;;20.86;64.56;100086.03;10457319;27;875;-72
2023/09/13 16:51:46;;;;;;;;;;;;;;;20.85;64.37;100086.97;10457544;27;845;-67
2023/09/13 16:56:42;;;;;;;;;;;;;;;20.86;64.34;100100.16;10457634;27;959;-71
2023/09/13 17:01:38;;;;;;;;;;;;;;;20.87;64.28;100108.94;10456673;27;1956;-72
2023/09/13 17:06:34;;;;;;;;;;;;;;;20.87;64.48;100103.66;10456616;27;762;-72
2023/09/13 17:11:30;;;;;;;;;;;;;;;20.86;64.28;100104.59;10457035;27;893;-71
2023/09/13 17:16:26;;;;;;;;;;;;;;;20.86;64.48;100110.75;10456090;27;1118;-72
2023/09/13 17:21:22;;;;;;;;;;;;;;;20.87;64.23;100122.19;10455135;27;1948;-68
2023/09/13 17:26:18;;;;;;;;;;;;;;;20.86;64.31;100118.69;10453702;27;1040;-70
2023/09/13 17:31:14;;;;;;;;;;;;;;;20.84;64.46;100128.50;10411969;28;1866;-72
2023/09/13 17:36:11;;;;;;;;;;;;;;;20.84;64.42;100131.16;10413474;28;912;-72
2023/09/13 17:41:06;;;;;;;;;;;;;;;20.85;64.32;100129.34;10412788;28;1973;-72
2023/09/13 17:46:02;;;;;;;;;;;;;;;20.84;64.28;100143.53;10413488;28;881;-72
2023/09/13 17:50:58;;;;;;;;;;;;;;;20.84;64.43;100144.41;10412945;28;874;-72
2023/09/13 17:55:54;;;;;;;;;;;;;;;20.82;64.47;100146.25;10413702;28;870;-71
2023/09/13 18:00:50;;;;;;;;;;;;;;;20.82;64.45;100162.16;10413188;28;1898;-73
2023/09/13 18:05:47;;;;;;;;;;;;;;;20.81;64.58;100167.53;10412935;28;886;-72
2023/09/13 18:10:43;;;;;;;;;;;;;;;20.80;64.50;100177.25;10411515;28;934;-72
2023/09/13 18:15:39;;;;;;;;;;;;;;;20.81;64.52;100186.09;10412623;28;809;-71
2023/09/13 18:20:35;;;;;;;;;;;;;;;20.80;64.47;100185.22;10413113;28;837;-72
2023/09/13 18:25:32;;;;;;;;;;;;;;;20.79;64.41;100194.97;10411466;28;1958;-70
2023/09/13 18:30:28;;;;;;;;;;;;;;;20.78;64.46;100201.19;10412365;28;1203;-72
2023/09/13 18:35:23;;;;;;;;;;;;;;;20.77;64.48;100194.16;10411933;28;876;-73
2023/09/13 18:40:20;;;;;;;;;;;;;;;20.77;64.36;100203.91;10411232;28;837;-73
2023/09/13 18:45:15;;;;;;;;;;;;;;;20.75;64.43;100204.00;10410982;28;1906;-70
2023/09/13 18:50:11;;;;;;;;;;;;;;;20.75;64.31;100206.66;10410100;28;857;-72
2023/09/13 18:55:08;;;;;;;;;;;;;;;20.75;64.56;100214.59;10410057;28;901;-73
2023/09/13 19:00:04;;;;;;;;;;;;;;;20.74;64.44;100212.88;10410231;28;978;-73
2023/09/13 19:05:00;;;;;;;;;;;;;;;20.73;64.57;100220.91;10409890;28;1927;-73
2023/09/13 19:09:56;;;;;;;;;;;;;;;20.73;64.55;100219.09;10409900;28;774;-73
2023/09/13 19:14:52;;;;;;;;;;;;;;;20.72;64.36;100222.69;10409790;28;862;-73
2023/09/13 19:19:48;;;;;;;;;;;;;;;20.72;64.55;100233.28;10409971;28;893;-73
2023/09/13 19:24:44;;;;;;;;;;;;;;;20.72;64.39;100238.59;10409301;28;1955;-73
2023/09/13 19:29:41;;;;;;;;;;;;;;;20.72;64.41;100250.97;10409605;28;1226;-73
2023/09/13 19:34:37;;;;;;;;;;;;;;;20.70;64.35;100251.03;10408868;28;964;-73
2023/09/13 19:39:32;;;;;;;;;;;;;;;20.70;64.42;100261.66;10408995;28;798;-73
2023/09/13 19:44:28;;;;;;;;;;;;;;;20.69;64.55;100267.00;10408635;28;1910;-73
2023/09/13 19:49:24;;;;;;;;;;;;;;;20.69;64.42;100265.19;10409157;28;876;-73
2023/09/13 19:54:20;;;;;;;;;;;;;;;20.69;64.48;100267.84;10408254;28;770;-72
2023/09/13 19:59:16;;;;;;;;;;;;;;;20.68;64.51;100271.44;10409105;28;931;-72
2023/09/13 20:04:12;;;;;;;;;;;;;;;20.69;64.50;100277.59;10407499;28;1897;-73
2023/09/13 20:09:08;;;;;;;;;;;;;;;20.68;64.48;100279.41;10407617;28;1126;-73
2023/09/13 20:14:04;;;;;;;;;;;;;;;20.66;64.43;100281.25;10407854;28;774;-72
2023/09/13 20:18:59;;;;;;;;;;;;;;;20.68;64.51;100281.19;10408640;28;954;-72
2023/09/13 20:23:55;;;;;;;;;;;;;;;20.67;64.51;100288.28;10407656;28;1894;-72
2023/09/13 20:28:51;;;;;;;;;;;;;;;20.67;64.32;100285.63;10407117;28;1230;-72
2023/09/13 20:33:47;;;;;;;;;;;;;;;20.66;64.60;100289.19;10408026;28;789;-70
2023/09/13 20:38:43;;;;;;;;;;;;;;;20.69;64.50;100296.13;10408052;28;848;-73
2023/09/13 20:43:39;;;;;;;;;;;;;;;20.66;64.48;100297.13;10407259;28;1984;-72
2023/09/13 20:48:35;;;;;;;;;;;;;;;20.65;64.62;100305.19;10407870;28;826;-74
2023/09/13 20:53:33;;;;;;;;;;;;;;;20.65;64.63;100302.53;10407112;28;821;-72
2023/09/13 20:58:29;;;;;;;;;;;;;;;20.64;64.46;100301.66;10407610;28;806;-72
2023/09/13 21:03:27;;;;;;;;;;;;;;;20.63;64.47;100302.59;10407189;28;1889;-72
2023/09/13 21:08:23;;;;;;;;;;;;;;;20.62;64.63;100306.19;10406142;28;1203;-72
2023/09/13 21:13:20;;;;;;;;;;;;;;;20.62;64.47;100306.19;10406639;28;801;-71
2023/09/13 21:18:16;;;;;;;;;;;;;;;20.61;64.48;100304.44;10411364;28;866;-71
2023/09/13 21:23:12;;;;;;;;;;;;;;;20.61;64.59;100303.59;10414033;28;1886;-72
2023/09/13 21:28:08;;;;;;;;;;;;;;;20.60;64.60;100307.19;10414487;28;1088;-71
2023/09/13 21:33:04;;;;;;;;;;;;;;;20.60;64.35;100297.44;10414519;28;854;-71
2023/09/13 21:38:01;;;;;;;;;;;;;;;20.58;64.45;100300.13;10413612;28;1115;-71
2023/09/13 21:42:57;;;;;;;;;;;;;;;20.58;64.44;100308.09;10413371;28;1905;-72
2023/09/13 21:47:53;;;;;;;;;;;;;;;20.57;64.57;100303.72;10413457;28;869;-71
2023/09/13 21:52:49;;;;;;;;;;;;;;;20.57;64.34;100294.94;10413665;28;817;-71
2023/09/13 21:57:45;;;;;;;;;;;;;;;20.57;64.40;100300.22;10412901;28;879;-71
2023/09/13 22:02:41;;;;;;;;;;;;;;;20.55;64.43;100297.63;10412014;28;1894;-71
2023/09/13 22:07:37;;;;;;;;;;;;;;;20.55;64.54;100302.09;10413083;28;873;-72
2023/09/13 22:12:33;;;;;;;;;;;;;;;20.55;64.40;100310.03;10412216;28;878;-71
2023/09/13 22:17:29;;;;;;;;;;;;;;;20.54;64.51;100311.81;10412059;28;929;-71
2023/09/13 22:22:25;;;;;;;;;;;;;;;20.53;64.35;100309.19;10412407;28;1953;-71
2023/09/13 22:27:21;;;;;;;;;;;;;;;20.53;64.40;100303.91;10410937;28;957;-71
2023/09/13 22:32:17;;;;;;;;;;;;;;;20.53;64.37;100303.91;10411621;28;1242;-71
2023/09/13 22:37:13;;;;;;;;;;;;;;;20.52;64.53;100312.78;10411271;28;937;-71
2023/09/13 22:42:09;;;;;;;;;;;;;;;20.51;64.40;100319.00;10410977;28;1981;-71
2023/09/13 22:47:05;;;;;;;;;;;;;;;20.50;64.41;100317.28;10410726;28;990;-71
2023/09/13 22:52:01;;;;;;;;;;;;;;;20.49;64.42;100319.09;10410693;28;770;-71
2023/09/13 22:56:57;;;;;;;;;;;;;;;20.49;64.39;100316.44;10410499;28;826;-71
2023/09/13 23:01:53;;;;;;;;;;;;;;;20.49;64.54;100323.53;10410295;28;1906;-72
2023/09/13 23:06:49;;;;;;;;;;;;;;;20.47;64.38;100331.53;10410712;28;868;-71
2023/09/13 23:11:45;;;;;;;;;;;;;;;20.48;64.38;100335.03;10410481;28;872;-71
2023/09/13 23:16:41;;;;;;;;;;;;;;;20.46;64.44;100329.81;10409591;28;854;-71
2023/09/13 23:21:37;;;;;;;;;;;;;;;20.46;64.46;100328.94;10409491;28;1894;-72
2023/09/13 23:26:33;;;;;;;;;;;;;;;20.45;64.41;100332.53;10409407;28;801;-71
2023/09/13 23:31:30;;;;;;;;;;;;;;;20.45;64.42;100337.81;10409574;28;1120;-71
2023/09/13 23:36:26;;;;;;;;;;;;;;;20.44;64.33;100333.47;10408425;28;890;-71
2023/09/13 23:41:21;;;;;;;;;;;;;;;20.42;64.49;100341.47;10408505;28;1894;-71
2023/09/13 23:46:17;;;;;;;;;;;;;;;20.43;64.36;100340.53;10408039;28;860;-71
2023/09/13 23:51:15;;;;;;;;;;;;;;;20.42;64.46;100344.13;10408514;28;866;-71
2023/09/13 23:56:11;;;;;;;;;;;;;;;20.42;64.37;100337.97;10409175;28;860;-71
